DAUU

Ain el Beida Airport

Ouargla, Algeria
METAR DAUU 200100Z 00000KT CAVOK 07/01 Q1013
Observed Flight Rules
Jan-20 @ 01:00 UTC (23 minutes ago) Visual Flight Rules
Wind Visibility Clouds
Calm 10,000+ meters
  • Clear skies
Temperatures Readings
Current 7°C / 45°F
Dewpoint 1°C / 34°F
Humidity 66%
Altimeter 29.91" Hg
Pressure 1013 hPa
Elevation 141
METAR DAUU 200100Z 00000KT CAVOK 07/01 Q1013
Observed Flight Rules
Jan-20 @ 01:00 UTC
(23 minutes ago)
VFR
Wind Visibility
Calm 10,000+ meters
Clouds
  • Clear skies
Temperature Dewpoint
7°C / 45°F 1°C / 34°F
Humidity Altimeter Pressure
66% 29.91" Hg 1013 hPa